Time;durP1;ratioP1;P1;durP2;ratioP2;P2;SDS_P1;SDS_P2;PMS_P1;PMS_P2;Temp;Humidity;BMP_temperature;BMP_pressure;BME280_temperature;BME280_humidity;BME280_pressure;Samples;Min_cycle;Max_cycle;Signal;HPM_P1;HPM_P2
2021/05/21 00:00:05;;;;;;;1.65;1.30;;;;;;;7.89;100.00;95798.56;1044407;28;20290;-70
2021/05/21 00:00:35;;;;;;;2.17;1.50;;;;;;;7.85;100.00;95790.41;1048261;28;20324;-71
2021/05/21 00:01:06;;;;;;;1.45;1.30;;;;;;;7.92;100.00;95790.25;1040103;28;20377;-71
2021/05/21 00:01:36;;;;;;;1.70;1.50;;;;;;;7.90;100.00;95792.28;1032125;28;20026;-71
2021/05/21 00:02:07;;;;;;;1.42;1.33;;;;;;;7.89;100.00;95796.72;1035782;28;20029;-71
2021/05/21 00:02:37;;;;;;;2.08;1.77;;;;;;;7.91;100.00;95799.09;1040212;28;20040;-71
2021/05/21 00:03:08;;;;;;;1.60;1.25;;;;;;;7.93;100.00;95795.22;1036269;28;20009;-71
2021/05/21 00:03:39;;;;;;;1.48;1.33;;;;;;;7.94;100.00;95788.16;1037306;28;20018;-71
2021/05/21 00:04:10;;;;;;;2.55;1.58;;;;;;;7.92;100.00;95790.25;1048310;28;20021;-72
2021/05/21 00:04:40;;;;;;;2.70;1.48;;;;;;;7.94;100.00;95788.94;1044166;28;20877;-71
2021/05/21 00:05:11;;;;;;;2.60;1.58;;;;;;;7.91;100.00;95789.41;1042788;28;20126;-71
2021/05/21 00:05:41;;;;;;;1.45;1.17;;;;;;;7.87;100.00;95783.13;1048089;28;20020;-69
2021/05/21 00:06:12;;;;;;;2.08;1.23;;;;;;;7.88;100.00;95779.50;1048245;28;20407;-71
2021/05/21 00:06:42;;;;;;;2.72;1.48;;;;;;;7.92;100.00;95785.81;1048359;28;20028;-72
2021/05/21 00:07:13;;;;;;;2.78;1.42;;;;;;;7.93;100.00;95783.97;1048109;28;20023;-71
2021/05/21 00:07:43;;;;;;;1.85;1.40;;;;;;;7.92;100.00;95785.00;1048396;28;20017;-71
2021/05/21 00:08:13;;;;;;;1.27;1.17;;;;;;;7.91;100.00;95783.41;1048424;28;20083;-71
2021/05/21 00:08:44;;;;;;;1.98;1.55;;;;;;;7.90;100.00;95774.78;1048121;28;20012;-71
2021/05/21 00:09:15;;;;;;;2.03;1.58;;;;;;;7.82;100.00;95774.44;1052531;28;20020;-72
2021/05/21 00:09:45;;;;;;;2.08;1.40;;;;;;;7.89;100.00;95775.84;1044280;28;20029;-71
2021/05/21 00:10:16;;;;;;;3.03;1.42;;;;;;;7.84;100.00;95767.94;1046768;28;20024;-70
2021/05/21 00:10:46;;;;;;;2.67;1.83;;;;;;;7.81;100.00;95757.97;1040129;28;20029;-71
2021/05/21 00:11:16;;;;;;;4.68;1.58;;;;;;;7.90;100.00;95772.19;1040261;28;20021;-72
2021/05/21 00:11:47;;;;;;;2.30;1.50;;;;;;;7.91;100.00;95775.56;1041416;28;20482;-71
2021/05/21 00:12:17;;;;;;;2.08;1.50;;;;;;;7.90;100.00;95766.16;1043905;28;20009;-70
2021/05/21 00:12:48;;;;;;;1.75;1.60;;;;;;;7.90;100.00;95769.56;1044168;28;20013;-71
2021/05/21 00:13:18;;;;;;;2.55;1.63;;;;;;;7.87;100.00;95774.50;1040175;28;20499;-71
2021/05/21 00:13:49;;;;;;;2.53;1.77;;;;;;;7.88;100.00;95769.03;1040082;28;20067;-70
2021/05/21 00:14:19;;;;;;;3.25;1.83;;;;;;;7.88;100.00;95774.25;1035752;28;20014;-71
2021/05/21 00:14:50;;;;;;;2.50;1.58;;;;;;;7.87;100.00;95767.44;1036217;28;20026;-72
2021/05/21 00:15:20;;;;;;;2.33;1.60;;;;;;;7.79;100.00;95753.00;1036122;28;20022;-71
2021/05/21 00:15:51;;;;;;;3.00;1.70;;;;;;;7.87;100.00;95762.22;1034043;28;20014;-70
2021/05/21 00:16:21;;;;;;;2.28;1.60;;;;;;;7.87;100.00;95750.97;1039962;28;20036;-71
2021/05/21 00:16:53;;;;;;;3.85;1.60;;;;;;;7.83;100.00;95757.72;1040370;28;20017;-71
2021/05/21 00:17:23;;;;;;;2.88;1.65;;;;;;;7.82;100.00;95756.94;1040454;28;20017;-71
2021/05/21 00:17:54;;;;;;;2.90;1.40;;;;;;;7.80;100.00;95759.78;1044200;28;20259;-71
2021/05/21 00:18:24;;;;;;;3.30;1.67;;;;;;;7.80;100.00;95765.00;1035952;28;20457;-71
2021/05/21 00:18:55;;;;;;;2.00;1.60;;;;;;;7.79;100.00;95763.44;1036253;28;20037;-71
2021/05/21 00:19:25;;;;;;;2.08;1.88;;;;;;;7.74;100.00;95752.91;1043880;28;20027;-72
2021/05/21 00:19:55;;;;;;;1.98;1.48;;;;;;;7.79;100.00;95760.84;1048375;28;20028;-72
2021/05/21 00:20:26;;;;;;;2.28;1.60;;;;;;;7.71;100.00;95748.22;1048168;28;20037;-72
2021/05/21 00:20:57;;;;;;;6.28;1.50;;;;;;;7.79;100.00;95749.59;1044225;28;20547;-71
2021/05/21 00:21:27;;;;;;;2.33;1.77;;;;;;;7.78;100.00;95754.03;1044417;28;20509;-73
2021/05/21 00:21:57;;;;;;;2.88;1.90;;;;;;;7.75;100.00;95757.13;1048355;28;20028;-70
2021/05/21 00:22:28;;;;;;;2.42;1.73;;;;;;;7.77;100.00;95751.66;1046845;28;20017;-72
2021/05/21 00:22:58;;;;;;;2.05;1.70;;;;;;;7.69;100.00;95745.03;1049471;28;20029;-71
2021/05/21 00:23:29;;;;;;;3.42;1.92;;;;;;;7.73;100.00;95750.56;1040253;28;20190;-71
2021/05/21 00:23:59;;;;;;;3.85;2.00;;;;;;;7.74;100.00;95752.13;1040078;28;20026;-71
2021/05/21 00:24:30;;;;;;;2.65;1.70;;;;;;;7.74;100.00;95749.53;1043807;28;20033;-70
2021/05/21 00:25:00;;;;;;;4.18;2.97;;;;;;;7.74;100.00;95752.91;1044382;28;20025;-71
2021/05/21 00:25:31;;;;;;;2.25;1.60;;;;;;;7.71;100.00;95750.81;1044233;28;20028;-71
2021/05/21 00:26:01;;;;;;;3.35;1.80;;;;;;;7.68;100.00;95740.88;1043324;28;20090;-72
2021/05/21 00:26:31;;;;;;;2.92;2.28;;;;;;;7.71;100.00;95753.44;1044115;28;20029;-71
2021/05/21 00:27:02;;;;;;;2.17;1.80;;;;;;;7.71;100.00;95750.81;1048365;28;20025;-71
2021/05/21 00:27:32;;;;;;;2.75;1.83;;;;;;;7.73;100.00;95750.56;1042851;28;20021;-71
2021/05/21 00:28:03;;;;;;;3.63;1.77;;;;;;;7.73;100.00;95750.56;1046301;28;20094;-71
2021/05/21 00:28:34;;;;;;;2.22;1.60;;;;;;;7.73;100.00;95751.34;1040176;28;20438;-71
2021/05/21 00:29:06;;;;;;;2.00;1.80;;;;;;;7.71;100.00;95753.44;1044413;28;20075;-71
2021/05/21 00:29:36;;;;;;;2.47;1.60;;;;;;;7.68;100.00;95751.31;1039928;28;20028;-71
2021/05/21 00:30:07;;;;;;;2.63;1.42;;;;;;;7.74;100.00;95752.13;1040227;28;20279;-71
2021/05/21 00:30:38;;;;;;;3.35;1.90;;;;;;;7.72;100.00;95749.78;1040141;28;20402;-72
2021/05/21 00:31:08;;;;;;;1.95;1.52;;;;;;;7.72;100.00;95744.56;1039277;28;20517;-71
2021/05/21 00:31:38;;;;;;;2.70;1.90;;;;;;;7.73;100.00;95750.56;1040229;28;20131;-71
2021/05/21 00:32:09;;;;;;;1.80;1.70;;;;;;;7.71;100.00;95750.00;1044039;28;20053;-71
2021/05/21 00:32:40;;;;;;;1.85;1.58;;;;;;;7.62;100.00;95739.22;1049853;28;20063;-71
2021/05/21 00:33:10;;;;;;;2.30;1.95;;;;;;;7.72;100.00;95751.59;1047875;28;20110;-71
2021/05/21 00:33:41;;;;;;;2.13;1.45;;;;;;;7.70;100.00;95751.84;1044537;28;20041;-71
2021/05/21 00:34:11;;;;;;;1.65;1.52;;;;;;;7.70;100.00;95746.63;1044105;28;20087;-71
2021/05/21 00:34:41;;;;;;;2.35;1.77;;;;;;;7.63;100.00;95743.41;1039815;28;20018;-72
2021/05/21 00:35:12;;;;;;;1.88;1.50;;;;;;;7.68;100.00;95748.69;1040102;28;20021;-71
2021/05/21 00:35:43;;;;;;;3.92;1.90;;;;;;;7.70;100.00;95745.81;1035621;28;20479;-70
2021/05/21 00:36:14;;;;;;;2.08;1.85;;;;;;;7.70;100.00;95746.63;1042713;28;20449;-72
2021/05/21 00:36:44;;;;;;;2.78;1.73;;;;;;;7.68;100.00;95748.69;1048492;28;20013;-71
2021/05/21 00:37:15;;;;;;;2.10;1.63;;;;;;;7.69;100.00;95744.25;1044111;28;20928;-71
2021/05/21 00:37:45;;;;;;;2.30;2.10;;;;;;;7.69;100.00;95744.25;1041277;28;20437;-71
2021/05/21 00:38:16;;;;;;;1.55;1.45;;;;;;;7.68;100.00;95743.47;1039628;28;20479;-71
2021/05/21 00:38:46;;;;;;;1.92;1.70;;;;;;;7.63;100.00;95735.56;1040187;28;20029;-71
2021/05/21 00:39:17;;;;;;;1.77;1.67;;;;;;;7.68;100.00;95743.47;1039505;28;20399;-73
2021/05/21 00:39:47;;;;;;;3.42;2.05;;;;;;;7.69;100.00;95739.03;1035289;28;20030;-72
2021/05/21 00:40:21;;;;;;;2.03;1.83;;;;;;;7.66;100.00;95735.09;1034641;28;20030;-70
2021/05/21 00:40:54;;;;;;;2.83;1.80;;;;;;;7.65;100.00;95737.94;1040074;28;20025;-71
2021/05/21 00:41:26;;;;;;;3.53;1.95;;;;;;;7.64;100.00;95741.56;1037860;28;20697;-70
2021/05/21 00:41:56;;;;;;;2.63;1.88;;;;;;;7.59;100.00;95737.09;1041189;28;20275;-72
2021/05/21 00:42:29;;;;;;;1.95;1.77;;;;;;;7.55;100.00;95728.19;1044036;28;20294;-71
2021/05/21 00:43:00;;;;;;;1.92;1.55;;;;;;;7.55;100.00;95725.56;1041641;28;20544;-71
2021/05/21 00:43:30;;;;;;;1.90;1.73;;;;;;;7.62;100.00;95734.00;1040809;28;20275;-71
2021/05/21 00:44:01;;;;;;;2.67;2.20;;;;;;;7.62;100.00;95733.22;1044396;28;20033;-72
2021/05/21 00:44:31;;;;;;;2.30;2.10;;;;;;;7.61;100.00;95732.41;1040803;28;20109;-71
2021/05/21 00:45:02;;;;;;;2.88;1.88;;;;;;;7.60;100.00;95728.22;1040088;28;20091;-71
2021/05/21 00:45:32;;;;;;;2.25;1.48;;;;;;;7.61;100.00;95737.63;1040332;28;20120;-71
2021/05/21 00:46:03;;;;;;;2.83;1.92;;;;;;;7.63;100.00;95735.56;1039513;28;20033;-70
2021/05/21 00:46:33;;;;;;;3.00;1.98;;;;;;;7.62;100.00;95728.00;1043883;28;20025;-70
2021/05/21 00:47:04;;;;;;;2.78;1.77;;;;;;;7.61;100.00;95732.41;1044278;28;20033;-72
2021/05/21 00:47:34;;;;;;;2.28;1.95;;;;;;;7.61;100.00;95729.78;1044327;28;20514;-71
2021/05/21 00:48:05;;;;;;;2.70;2.00;;;;;;;7.62;100.00;95717.53;1038287;28;20014;-70
2021/05/21 00:48:35;;;;;;;3.20;1.90;;;;;;;7.61;100.00;95724.56;1036344;28;20056;-70
2021/05/21 00:49:06;;;;;;;2.13;1.92;;;;;;;7.60;100.00;95719.59;1035977;28;20805;-71
2021/05/21 00:49:36;;;;;;;1.65;1.55;;;;;;;7.59;100.00;95718.81;1043585;28;20051;-71
2021/05/21 00:50:07;;;;;;;2.13;1.90;;;;;;;7.52;100.00;95707.78;1050494;28;20032;-72
2021/05/21 00:50:38;;;;;;;4.82;1.92;;;;;;;7.59;100.00;95713.59;1052698;28;20035;-71
2021/05/21 00:51:08;;;;;;;2.03;1.80;;;;;;;7.60;100.00;95719.59;1044368;28;20060;-70
2021/05/21 00:51:39;;;;;;;2.08;1.88;;;;;;;7.57;100.00;95716.44;1044230;28;20395;-70
2021/05/21 00:52:09;;;;;;;2.40;1.95;;;;;;;7.51;100.00;95708.78;1043338;28;20037;-71
2021/05/21 00:52:41;;;;;;;2.17;1.75;;;;;;;7.57;100.00;95718.25;1047142;28;20020;-71
2021/05/21 00:53:12;;;;;;;2.75;1.98;;;;;;;7.54;100.00;95708.28;1047294;28;20060;-72
2021/05/21 00:53:42;;;;;;;3.83;2.10;;;;;;;7.57;100.00;95723.47;1043164;28;20259;-71
2021/05/21 00:54:16;;;;;;;3.53;2.03;;;;;;;7.51;100.00;95706.16;1040256;28;20044;-71
2021/05/21 00:54:47;;;;;;;2.40;1.90;;;;;;;7.57;100.00;95713.81;1039836;28;20029;-70
2021/05/21 00:55:17;;;;;;;2.25;1.83;;;;;;;7.60;100.00;95720.38;1039267;28;20265;-71
2021/05/21 00:55:48;;;;;;;1.95;1.77;;;;;;;7.56;100.00;95707.03;1039473;28;20506;-72
2021/05/21 00:56:18;;;;;;;3.22;1.75;;;;;;;7.62;100.00;95712.31;1036065;28;20025;-70
2021/05/21 00:56:49;;;;;;;1.60;1.50;;;;;;;7.61;100.00;95711.50;1038889;28;20026;-71
2021/05/21 00:57:19;;;;;;;4.90;1.67;;;;;;;7.63;100.00;95712.06;1043247;28;20025;-71
2021/05/21 00:57:50;;;;;;;3.53;1.70;;;;;;;7.64;100.00;95721.47;1042093;28;20033;-72
2021/05/21 00:58:20;;;;;;;2.22;1.90;;;;;;;7.63;100.00;95709.44;1036093;28;20030;-70
2021/05/21 00:58:51;;;;;;;2.83;2.03;;;;;;;7.57;100.00;95702.59;1043640;28;20028;-72
2021/05/21 00:59:21;;;;;;;1.95;1.83;;;;;;;7.64;100.00;95716.25;1039602;28;20022;-70
2021/05/21 00:59:51;;;;;;;3.03;1.90;;;;;;;7.63;100.00;95712.06;1040209;28;20029;-69
2021/05/21 01:00:22;;;;;;;2.08;1.88;;;;;;;7.64;100.00;95716.25;1039445;28;20021;-67
2021/05/21 01:00:53;;;;;;;2.20;1.73;;;;;;;7.59;100.00;95697.13;1043466;28;20040;-72
2021/05/21 01:01:27;;;;;;;2.85;1.90;;;;;;;7.57;100.00;95695.53;1047670;28;20032;-67
2021/05/21 01:01:57;;;;;;;2.25;1.77;;;;;;;7.62;100.00;95713.09;1043558;28;20315;-72
2021/05/21 01:02:28;;;;;;;2.38;1.70;;;;;;;7.62;100.00;95705.28;1040037;28;20327;-66
2021/05/21 01:02:59;;;;;;;1.92;1.73;;;;;;;7.62;100.00;95710.50;1040149;28;20030;-71
2021/05/21 01:03:29;;;;;;;4.88;2.00;;;;;;;7.63;100.00;95711.28;1036532;28;20025;-71
2021/05/21 01:04:00;;;;;;;1.77;1.60;;;;;;;7.63;100.00;95711.28;1041984;28;20535;-72
2021/05/21 01:04:30;;;;;;;1.90;1.70;;;;;;;7.61;100.00;95711.50;1047710;28;20519;-71
2021/05/21 01:05:00;;;;;;;6.47;1.83;;;;;;;7.53;100.00;95698.91;1047762;28;20059;-71
2021/05/21 01:05:31;;;;;;;4.53;1.95;;;;;;;7.62;100.00;95712.31;1047663;28;20025;-72
2021/05/21 01:06:02;;;;;;;2.25;1.80;;;;;;;7.63;100.00;95711.28;1042935;28;20017;-71
2021/05/21 01:06:32;;;;;;;3.20;1.65;;;;;;;7.55;100.00;95702.84;1038568;28;20036;-71
2021/05/21 01:07:04;;;;;;;3.65;1.90;;;;;;;7.61;100.00;95713.34;1035274;28;20026;-71
2021/05/21 01:07:34;;;;;;;2.03;1.80;;;;;;;7.61;100.00;95711.50;1036059;28;20084;-72
2021/05/21 01:08:05;;;;;;;2.47;1.75;;;;;;;7.63;100.00;95714.69;1039679;28;20394;-71
2021/05/21 01:08:35;;;;;;;1.80;1.65;;;;;;;7.59;100.00;95705.75;1043940;28;20573;-71
2021/05/21 01:09:05;;;;;;;2.50;1.65;;;;;;;7.63;100.00;95708.66;1043646;28;20024;-70
2021/05/21 01:09:36;;;;;;;1.63;1.52;;;;;;;7.56;100.00;95701.81;1043687;28;20551;-71
2021/05/21 01:10:07;;;;;;;1.58;1.48;;;;;;;7.63;100.00;95703.44;1038948;28;20037;-72
2021/05/21 01:10:37;;;;;;;2.50;1.50;;;;;;;7.63;100.00;95714.69;1035461;28;20060;-72
2021/05/21 01:11:09;;;;;;;4.90;1.70;;;;;;;7.62;100.00;95710.50;1043636;28;20846;-72
2021/05/21 01:11:39;;;;;;;3.10;1.88;;;;;;;7.61;100.00;95701.06;1042182;28;20083;-71
2021/05/21 01:12:09;;;;;;;2.15;1.90;;;;;;;7.50;100.00;95694.16;1040604;28;20310;-69
2021/05/21 01:12:40;;;;;;;1.45;1.33;;;;;;;7.59;100.00;95705.75;1040031;28;20057;-70
2021/05/21 01:13:10;;;;;;;1.85;1.65;;;;;;;7.58;100.00;95704.19;1044072;28;20029;-68
2021/05/21 01:13:41;;;;;;;1.95;1.67;;;;;;;7.58;100.00;95701.56;1052262;28;20131;-71
2021/05/21 01:14:11;;;;;;;2.08;1.75;;;;;;;7.55;100.00;95700.25;1044273;28;20037;-71
2021/05/21 01:14:52;;;;;;;2.00;1.50;;;;;;;7.52;100.00;95698.09;1043034;28;20525;-72
2021/05/21 01:15:22;;;;;;;1.92;1.70;;;;;;;7.54;100.00;95697.84;1040860;28;20028;-70
2021/05/21 01:15:52;;;;;;;1.52;1.42;;;;;;;7.58;100.00;95701.56;1040509;28;20502;-70
2021/05/21 01:16:26;;;;;;;2.60;1.70;;;;;;;7.57;100.00;95705.19;1048484;28;20016;-71
2021/05/21 01:16:56;;;;;;;1.75;1.60;;;;;;;7.58;100.00;95712.03;1055711;28;20266;-71
2021/05/21 01:17:28;;;;;;;2.33;1.67;;;;;;;7.51;100.00;95701.75;1051990;28;20032;-68
2021/05/21 01:17:58;;;;;;;2.78;1.60;;;;;;;7.56;100.00;95708.84;1043580;28;20025;-72
2021/05/21 01:18:29;;;;;;;2.85;1.50;;;;;;;7.56;100.00;95714.06;1035220;28;20253;-72
2021/05/21 01:19:04;;;;;;;2.08;1.70;;;;;;;7.58;100.00;95712.03;1035287;28;20018;-71
2021/05/21 01:19:34;;;;;;;2.10;1.80;;;;;;;7.58;100.00;95714.63;1034544;28;20125;-72
2021/05/21 01:20:09;;;;;;;1.95;1.70;;;;;;;7.59;100.00;95718.03;1040451;28;20307;-70
2021/05/21 01:20:39;;;;;;;2.53;1.70;;;;;;;7.59;100.00;95713.59;1040773;28;20418;-67
2021/05/21 01:21:13;;;;;;;2.67;1.85;;;;;;;7.49;100.00;95698.59;1038932;28;20279;-72
2021/05/21 01:21:43;;;;;;;1.90;1.75;;;;;;;7.55;100.00;95710.69;1034020;28;20033;-70
2021/05/21 01:22:14;;;;;;;1.65;1.55;;;;;;;7.57;100.00;95708.59;1030989;28;20269;-71
2021/05/21 01:22:44;;;;;;;2.03;1.50;;;;;;;7.57;100.00;95705.97;1031963;28;20034;-71
2021/05/21 01:23:15;;;;;;;2.00;1.80;;;;;;;7.58;100.00;95709.41;1035757;28;20026;-71
2021/05/21 01:23:45;;;;;;;2.05;1.85;;;;;;;7.55;100.00;95702.84;1047607;28;20024;-72
2021/05/21 01:24:16;;;;;;;2.00;1.80;;;;;;;7.56;100.00;95706.25;1043411;28;20028;-71
2021/05/21 01:24:46;;;;;;;3.90;1.88;;;;;;;7.54;100.00;95700.47;1038779;28;20029;-71
2021/05/21 01:25:17;;;;;;;3.08;1.83;;;;;;;7.54;100.00;95705.69;1039447;28;20434;-72
2021/05/21 01:25:47;;;;;;;1.90;1.65;;;;;;;7.56;100.00;95698.41;1034769;28;20029;-72
2021/05/21 01:26:18;;;;;;;3.65;1.90;;;;;;;7.55;100.00;95702.06;1042830;28;20640;-71
2021/05/21 01:26:48;;;;;;;1.73;1.50;;;;;;;7.49;100.00;95689.97;1039361;28;20029;-71
2021/05/21 01:27:19;;;;;;;2.40;1.60;;;;;;;7.51;100.00;95699.16;1035251;28;20034;-71
2021/05/21 01:27:56;;;;;;;1.58;1.48;;;;;;;7.55;100.00;95694.22;1038613;28;20009;-71
2021/05/21 01:28:27;;;;;;;2.45;1.65;;;;;;;7.53;100.00;95691.06;1043134;28;20025;-71
2021/05/21 01:28:57;;;;;;;3.38;1.90;;;;;;;7.51;100.00;95693.94;1039442;28;20287;-71
2021/05/21 01:29:28;;;;;;;1.88;1.67;;;;;;;7.45;100.00;95676.63;1039093;28;20033;-70
2021/05/21 01:29:58;;;;;;;1.80;1.70;;;;;;;7.51;100.00;95680.88;1031368;28;20064;-71
2021/05/21 01:30:29;;;;;;;1.90;1.60;;;;;;;7.44;100.00;95666.41;1033602;28;20026;-71
2021/05/21 01:30:59;;;;;;;2.42;2.00;;;;;;;7.52;100.00;95672.00;1039331;28;20022;-71
2021/05/21 01:31:30;;;;;;;3.10;1.73;;;;;;;7.55;100.00;95670.72;1039179;28;20021;-71
2021/05/21 01:32:01;;;;;;;2.90;1.70;;;;;;;7.55;100.00;95670.72;1040350;28;20034;-71
2021/05/21 01:32:32;;;;;;;2.28;1.60;;;;;;;7.54;100.00;95669.13;1039460;28;20037;-70
2021/05/21 01:33:07;;;;;;;3.53;1.90;;;;;;;7.54;100.00;95672.56;1039193;28;20252;-71
2021/05/21 01:33:37;;;;;;;3.15;1.65;;;;;;;7.47;100.00;95658.09;1031698;28;20041;-71
2021/05/21 01:34:07;;;;;;;2.10;1.60;;;;;;;7.56;100.00;95673.09;1027153;28;20317;-71
2021/05/21 01:34:39;;;;;;;2.45;1.70;;;;;;;7.55;100.00;95670.72;1031171;28;20030;-68
2021/05/21 01:35:09;;;;;;;1.58;1.42;;;;;;;7.56;100.00;95675.69;1035127;28;20026;-71
2021/05/21 01:35:40;;;;;;;2.47;1.77;;;;;;;7.55;100.00;95675.94;1030398;28;20691;-68
2021/05/21 01:36:10;;;;;;;2.30;1.50;;;;;;;7.54;100.00;95669.94;1034908;28;20046;-71
2021/05/21 01:36:43;;;;;;;4.25;1.88;;;;;;;7.54;100.00;95676.97;1039473;28;20035;-71
2021/05/21 01:37:17;;;;;;;2.58;1.50;;;;;;;7.50;100.00;95665.44;1047524;28;20497;-71
2021/05/21 01:37:48;;;;;;;4.53;1.70;;;;;;;7.50;100.00;95665.44;1047472;28;20277;-70
2021/05/21 01:38:19;;;;;;;2.92;1.80;;;;;;;7.45;100.00;95660.19;1043494;28;20269;-72
2021/05/21 01:39:09;;;;;;;2.75;2.00;;;;;;;7.51;100.00;95669.63;1038626;28;20290;-72
2021/05/21 01:39:40;;;;;;;2.00;1.42;;;;;;;7.48;100.00;95664.91;1039421;28;20037;-70
2021/05/21 01:40:11;;;;;;;3.10;1.60;;;;;;;7.49;100.00;95666.47;1041015;28;20037;-71
2021/05/21 01:40:42;;;;;;;1.73;1.63;;;;;;;7.47;100.00;95664.09;1036033;28;20026;-71
2021/05/21 01:41:13;;;;;;;2.42;1.95;;;;;;;7.47;100.00;95671.94;1034968;28;20273;-71
2021/05/21 01:41:43;;;;;;;2.05;1.63;;;;;;;7.45;100.00;95674.00;1031230;28;20254;-71
2021/05/21 01:42:14;;;;;;;5.57;2.20;;;;;;;7.44;100.00;95664.59;1031080;28;20134;-71
2021/05/21 01:42:45;;;;;;;3.33;1.98;;;;;;;7.47;100.00;95665.94;1037291;28;20204;-71
2021/05/21 01:43:15;;;;;;;2.08;1.65;;;;;;;7.47;100.00;95663.31;1035251;28;20288;-71
2021/05/21 01:43:46;;;;;;;3.35;1.88;;;;;;;7.47;100.00;95663.31;1034946;28;20141;-71
2021/05/21 01:44:16;;;;;;;1.95;1.60;;;;;;;7.39;100.00;95651.50;1035377;28;20060;-70
2021/05/21 01:44:50;;;;;;;2.25;1.80;;;;;;;7.40;100.00;95645.22;1030084;28;20026;-71
2021/05/21 01:45:21;;;;;;;2.05;1.80;;;;;;;7.35;100.00;95639.97;1032523;28;20022;-71
2021/05/21 01:45:51;;;;;;;1.65;1.55;;;;;;;7.44;100.00;95653.34;1032065;28;20264;-71
2021/05/21 01:46:22;;;;;;;6.25;1.83;;;;;;;7.45;100.00;95660.19;1030623;28;20106;-70
2021/05/21 01:46:53;;;;;;;2.25;1.65;;;;;;;7.45;100.00;95655.75;1030746;28;20026;-71
2021/05/21 01:47:23;;;;;;;2.83;1.50;;;;;;;7.45;100.00;95654.97;1032210;28;20030;-72
2021/05/21 01:47:54;;;;;;;2.20;1.85;;;;;;;7.43;100.00;95652.56;1038824;28;20522;-71
2021/05/21 01:48:25;;;;;;;2.38;1.80;;;;;;;7.43;100.00;95652.56;1039115;28;20033;-71
2021/05/21 01:48:56;;;;;;;2.85;1.88;;;;;;;7.40;100.00;95649.66;1042205;28;20614;-71
2021/05/21 01:49:29;;;;;;;2.03;1.58;;;;;;;7.42;100.00;95651.00;1038979;28;20264;-71
2021/05/21 01:50:03;;;;;;;3.72;1.60;;;;;;;7.44;100.00;95655.97;1039780;28;20056;-71
2021/05/21 01:50:33;;;;;;;2.33;1.80;;;;;;;7.42;100.00;95658.06;1042778;28;20259;-68
2021/05/21 01:51:04;;;;;;;3.13;1.83;;;;;;;7.43;100.00;95657.00;1040088;28;20271;-71
2021/05/21 01:51:35;;;;;;;4.80;1.65;;;;;;;7.37;100.00;95650.94;1043176;28;20078;-71
2021/05/21 01:52:05;;;;;;;2.08;1.70;;;;;;;7.35;100.00;95642.56;1038942;28;20026;-71
2021/05/21 01:52:37;;;;;;;3.65;1.92;;;;;;;7.45;100.00;95654.97;1042049;28;20041;-71
2021/05/21 01:53:07;;;;;;;2.08;1.65;;;;;;;7.45;100.00;95650.53;1038775;28;20055;-71
2021/05/21 01:53:38;;;;;;;1.98;1.73;;;;;;;7.44;100.00;95654.16;1034813;28;20788;-72
2021/05/21 01:54:12;;;;;;;2.13;1.38;;;;;;;7.37;100.00;95639.72;1037150;28;20068;-71
2021/05/21 01:54:43;;;;;;;3.35;1.60;;;;;;;7.45;100.00;95650.53;1043215;28;20574;-72
2021/05/21 01:55:13;;;;;;;2.88;1.40;;;;;;;7.37;100.00;95640.50;1038784;28;20267;-71
2021/05/21 01:55:50;;;;;;;2.33;1.45;;;;;;;7.44;100.00;95653.34;1037018;28;20095;-71
2021/05/21 01:56:20;;;;;;;1.63;1.48;;;;;;;7.43;100.00;95654.41;1035516;28;20762;-71
2021/05/21 01:56:53;;;;;;;1.40;1.30;;;;;;;7.43;100.00;95651.78;1036693;28;20269;-71
2021/05/21 01:57:24;;;;;;;2.08;1.50;;;;;;;7.42;100.00;95650.22;1040924;28;20032;-72
2021/05/21 01:57:54;;;;;;;2.05;1.60;;;;;;;7.44;100.00;95648.13;1039042;28;20291;-72
2021/05/21 01:58:25;;;;;;;1.55;1.40;;;;;;;7.42;100.00;95650.22;1035214;28;20411;-71
2021/05/21 01:58:57;;;;;;;2.08;1.42;;;;;;;7.42;100.00;95651.00;1038917;28;20095;-72
2021/05/21 01:59:27;;;;;;;1.52;1.27;;;;;;;7.43;100.00;95649.97;1041998;28;20032;-72
2021/05/21 01:59:57;;;;;;;2.65;1.80;;;;;;;7.42;100.00;95650.22;1047347;28;20289;-71
2021/05/21 02:00:28;;;;;;;1.42;1.30;;;;;;;7.42;100.00;95642.38;1038939;28;20029;-71
2021/05/21 02:00:58;;;;;;;1.83;1.67;;;;;;;7.45;100.00;95652.34;1030583;28;20025;-72
2021/05/21 02:01:29;;;;;;;2.15;1.48;;;;;;;7.42;100.00;95645.00;1030916;28;20018;-72
2021/05/21 02:02:00;;;;;;;2.85;1.77;;;;;;;7.42;100.00;95650.22;1035063;28;20034;-72
2021/05/21 02:02:30;;;;;;;1.48;1.38;;;;;;;7.40;100.00;95650.44;1034682;28;20033;-70
2021/05/21 02:03:01;;;;;;;1.63;1.40;;;;;;;7.39;100.00;95640.25;1043387;28;20025;-70
2021/05/21 02:03:31;;;;;;;2.58;1.40;;;;;;;7.31;100.00;95629.22;1047488;28;20477;-71
2021/05/21 02:04:03;;;;;;;1.80;1.25;;;;;;;7.31;100.00;95634.44;1042854;28;20021;-72
2021/05/21 02:04:35;;;;;;;1.92;1.40;;;;;;;7.32;100.00;95630.00;1042599;28;20029;-70
2021/05/21 02:05:07;;;;;;;3.55;1.40;;;;;;;7.31;100.00;95634.44;1034814;28;20790;-71
2021/05/21 02:05:37;;;;;;;1.63;1.25;;;;;;;7.39;100.00;95642.88;1030771;28;20260;-68
2021/05/21 02:06:08;;;;;;;3.20;1.75;;;;;;;7.40;100.00;95641.84;1033824;28;20302;-72
2021/05/21 02:06:38;;;;;;;2.40;1.50;;;;;;;7.39;100.00;95641.06;1034863;28;20022;-71
2021/05/21 02:07:13;;;;;;;2.60;1.52;;;;;;;7.32;100.00;95635.22;1034911;28;20038;-72
2021/05/21 02:07:46;;;;;;;1.83;1.40;;;;;;;7.38;100.00;95639.47;1030341;28;20260;-67
2021/05/21 02:08:16;;;;;;;1.90;1.40;;;;;;;7.36;100.00;95641.53;1034803;28;20371;-71
2021/05/21 02:08:46;;;;;;;1.50;1.30;;;;;;;7.38;100.00;95638.66;1034965;28;20273;-71
2021/05/21 02:09:17;;;;;;;2.88;1.80;;;;;;;7.36;100.00;95635.53;1034931;28;20029;-71
2021/05/21 02:09:55;;;;;;;1.90;1.60;;;;;;;7.37;100.00;95639.72;1030396;28;20084;-71
2021/05/21 02:10:25;;;;;;;4.70;1.50;;;;;;;7.37;100.00;95639.72;1040155;28;20482;-72
2021/05/21 02:10:59;;;;;;;2.00;1.48;;;;;;;7.36;100.00;95640.75;1038951;28;20264;-70
2021/05/21 02:11:29;;;;;;;1.30;1.20;;;;;;;7.35;100.00;95644.41;1035210;28;20029;-72
2021/05/21 02:12:04;;;;;;;2.33;1.63;;;;;;;7.33;100.00;95642.03;1031287;28;20296;-71
2021/05/21 02:12:35;;;;;;;2.30;1.33;;;;;;;7.34;100.00;95633.16;1036002;28;20042;-71
2021/05/21 02:13:05;;;;;;;1.30;1.20;;;;;;;7.33;100.00;95634.97;1034495;28;20261;-70
2021/05/21 02:13:36;;;;;;;2.72;1.38;;;;;;;7.33;100.00;95634.19;1035565;28;20764;-71
2021/05/21 02:14:06;;;;;;;1.40;1.30;;;;;;;7.32;100.00;95638.63;1035122;28;20041;-72
2021/05/21 02:14:37;;;;;;;1.48;1.30;;;;;;;7.32;100.00;95630.00;1034928;28;20017;-71
2021/05/21 02:15:08;;;;;;;1.55;1.17;;;;;;;7.31;100.00;95637.06;1043171;28;20029;-71
2021/05/21 02:15:38;;;;;;;1.98;1.35;;;;;;;7.23;100.00;95632.25;1038132;28;20033;-70
2021/05/21 02:16:09;;;;;;;1.42;1.20;;;;;;;7.25;100.00;95630.19;1036738;28;20269;-71
2021/05/21 02:16:39;;;;;;;1.98;1.20;;;;;;;7.30;100.00;95632.84;1034738;28;20037;-71
2021/05/21 02:17:09;;;;;;;1.58;1.13;;;;;;;7.29;100.00;95636.50;1034794;28;20072;-72
2021/05/21 02:17:40;;;;;;;2.03;1.35;;;;;;;7.28;100.00;95634.94;1039589;28;20033;-72
2021/05/21 02:18:11;;;;;;;2.05;1.40;;;;;;;7.29;100.00;95636.50;1036341;28;20036;-72
2021/05/21 02:18:43;;;;;;;2.40;1.50;;;;;;;7.28;100.00;95624.50;1038981;28;20552;-71
2021/05/21 02:19:13;;;;;;;3.72;1.40;;;;;;;7.25;100.00;95617.16;1039079;28;20064;-72
2021/05/21 02:19:44;;;;;;;5.50;1.52;;;;;;;7.26;100.00;95631.75;1039189;28;20302;-71
2021/05/21 02:20:14;;;;;;;2.60;1.33;;;;;;;7.21;100.00;95618.69;1039853;28;20032;-72
2021/05/21 02:20:44;;;;;;;2.25;1.48;;;;;;;7.28;100.00;95628.94;1038890;28;20029;-73
2021/05/21 02:21:15;;;;;;;1.55;1.40;;;;;;;7.26;100.00;95623.16;1037654;28;20577;-71
2021/05/21 02:21:46;;;;;;;2.60;1.30;;;;;;;7.23;100.00;95621.81;1037785;28;20017;-71
2021/05/21 02:22:20;;;;;;;2.72;1.40;;;;;;;7.26;100.00;95625.75;1042971;28;20033;-71
2021/05/21 02:22:50;;;;;;;2.25;1.83;;;;;;;7.26;100.00;95625.75;1043547;28;20297;-71
2021/05/21 02:23:21;;;;;;;3.38;1.40;;;;;;;7.24;100.00;95626.03;1047633;28;20324;-71
2021/05/21 02:23:52;;;;;;;3.17;1.38;;;;;;;7.24;100.00;95620.81;1051689;28;20413;-71
2021/05/21 02:24:22;;;;;;;4.47;1.55;;;;;;;7.23;100.00;95621.81;1047039;28;20028;-71
2021/05/21 02:24:54;;;;;;;1.73;1.50;;;;;;;7.24;100.00;95623.41;1042857;28;20430;-71
2021/05/21 02:25:24;;;;;;;1.85;1.40;;;;;;;7.22;100.00;95620.25;1043065;28;20029;-72
2021/05/21 02:25:55;;;;;;;2.03;1.67;;;;;;;7.22;100.00;95620.25;1038157;28;20330;-69